Time;durP1;ratioP1;P1;durP2;ratioP2;P2;SDS_P1;SDS_P2;PMS_P1;PMS_P2;Temp;Humidity;BMP_temperature;BMP_pressure;BME280_temperature;BME280_humidity;BME280_pressure;Samples;Min_cycle;Max_cycle;Signal;HPM_P1;HPM_P2
2022/07/13 00:01:11;;;;;;;5.60;2.30;;;;;;;;;;6025831;29;20140;-82
2022/07/13 00:04:13;;;;;;;2.67;2.47;;;;;;;;;;6025216;29;20072;-82
2022/07/13 00:07:15;;;;;;;2.42;2.10;;;;;;;;;;6022236;29;20049;-82
2022/07/13 00:10:16;;;;;;;3.25;2.20;;;;;;;;;;6026207;29;20128;-83
2022/07/13 00:13:18;;;;;;;2.53;2.10;;;;;;;;;;6009096;29;20493;-82
2022/07/13 00:16:20;;;;;;;2.40;2.20;;;;;;;;;;6025861;29;20450;-81
2022/07/13 00:19:22;;;;;;;3.08;2.50;;;;;;;;;;6016305;29;20056;-81
2022/07/13 00:22:25;;;;;;;4.05;2.38;;;;;;;;;;6005504;29;20069;-82
2022/07/13 00:25:26;;;;;;;2.17;1.95;;;;;;;;;;6004748;29;20045;-80
2022/07/13 00:28:28;;;;;;;4.57;2.47;;;;;;;;;;6018575;29;20057;-82
2022/07/13 00:31:30;;;;;;;2.50;2.15;;;;;;;;;;5999527;29;20777;-81
2022/07/13 00:34:32;;;;;;;3.33;2.00;;;;;;;;;;6007549;29;20054;-80
2022/07/13 00:37:34;;;;;;;2.40;2.20;;;;;;;;;;6019313;29;20050;-82
2022/07/13 00:40:36;;;;;;;2.72;2.22;;;;;;;;;;6012066;29;20084;-81
2022/07/13 00:43:38;;;;;;;2.60;2.40;;;;;;;;;;6000562;29;20169;-81
2022/07/13 00:46:55;;;;;;;2.42;2.22;;;;;;;;;;6006752;29;20106;-80
2022/07/13 00:49:57;;;;;;;2.80;2.45;;;;;;;;;;6021305;29;20490;-81
2022/07/13 00:52:59;;;;;;;2.33;2.13;;;;;;;;;;6005401;29;20081;-79
2022/07/13 00:56:02;;;;;;;2.60;2.40;;;;;;;;;;6004818;29;20102;-81
2022/07/13 00:59:04;;;;;;;;;;;;;;;;;;6015193;29;20136;-81
2022/07/13 01:02:06;;;;;;;3.58;2.60;;;;;;;;;;6010858;29;19992;-82
2022/07/13 01:05:10;;;;;;;2.47;2.28;;;;;;;;;;6010382;29;20068;-82
2022/07/13 01:08:12;;;;;;;2.55;2.35;;;;;;;;;;6010099;29;20133;-81
2022/07/13 01:11:14;;;;;;;2.50;2.27;;;;;;;;;;6002849;29;20057;-81
2022/07/13 01:14:16;;;;;;;2.83;2.57;;;;;;;;;;6027459;29;20094;-81
2022/07/13 01:17:18;;;;;;;2.47;2.28;;;;;;;;;;6014845;29;20446;-81
2022/07/13 01:20:21;;;;;;;2.90;2.40;;;;;;;;;;6002183;29;20101;-79
2022/07/13 01:23:23;;;;;;;2.45;2.25;;;;;;;;;;6008125;29;20046;-80
2022/07/13 01:26:25;;;;;;;2.60;2.20;;;;;;;;;;6004589;29;20045;-79
2022/07/13 01:29:27;;;;;;;3.55;2.40;;;;;;;;;;6008116;29;20128;-80
2022/07/13 01:32:28;;;;;;;3.03;2.60;;;;;;;;;;6008717;29;20049;-80
2022/07/13 01:35:30;;;;;;;3.33;2.55;;;;;;;;;;6003800;29;20053;-79
2022/07/13 01:38:32;;;;;;;3.15;2.75;;;;;;;;;;6005766;29;20124;-82
2022/07/13 01:41:35;;;;;;;3.03;2.72;;;;;;;;;;5987330;29;20046;-82
2022/07/13 01:44:38;;;;;;;3.95;2.60;;;;;;;;;;6007606;29;20045;-81
2022/07/13 01:47:41;;;;;;;3.78;2.40;;;;;;;;;;6007909;29;20113;-81
2022/07/13 01:50:43;;;;;;;2.70;2.50;;;;;;;;;;6001974;29;20132;-82
2022/07/13 01:53:44;;;;;;;3.00;2.70;;;;;;;;;;6006813;29;20098;-81
2022/07/13 01:56:46;;;;;;;4.70;2.80;;;;;;;;;;6021743;29;20045;-81
2022/07/13 01:59:47;;;;;;;4.32;2.60;;;;;;;;;;6006585;29;20055;-81
2022/07/13 02:02:49;;;;;;;2.50;2.30;;;;;;;;;;6008051;29;20050;-79
2022/07/13 02:05:55;;;;;;;2.58;2.38;;;;;;;;;;6000442;29;20045;-81
2022/07/13 02:09:00;;;;;;;3.55;2.40;;;;;;;;;;6007898;29;20068;-81
2022/07/13 02:12:02;;;;;;;3.10;2.55;;;;;;;;;;6024331;29;20042;-82
2022/07/13 02:15:04;;;;;;;2.80;2.40;;;;;;;;;;6023429;29;20084;-82
2022/07/13 02:18:06;;;;;;;2.80;2.45;;;;;;;;;;6007103;29;20128;-81
2022/07/13 02:21:09;;;;;;;2.78;2.33;;;;;;;;;;6000709;29;20053;-81
2022/07/13 02:24:10;;;;;;;3.55;2.50;;;;;;;;;;6007310;29;20065;-83
2022/07/13 02:27:13;;;;;;;;;;;;;;;;;;6008186;29;20082;-82
2022/07/13 02:30:15;;;;;;;3.08;2.53;;;;;;;;;;6007927;29;19928;-81
2022/07/13 02:33:17;;;;;;;2.67;2.47;;;;;;;;;;6007659;29;20474;-82
2022/07/13 02:36:19;;;;;;;4.93;2.53;;;;;;;;;;6005164;29;20046;-82
2022/07/13 02:39:23;;;;;;;4.25;2.60;;;;;;;;;;6022061;29;20038;-82
2022/07/13 02:42:25;;;;;;;3.15;2.67;;;;;;;;;;6005634;29;20071;-82
2022/07/13 02:45:26;;;;;;;4.00;2.90;;;;;;;;;;6000597;29;20130;-81
2022/07/13 02:48:30;;;;;;;3.55;2.58;;;;;;;;;;6004189;29;20038;-79
2022/07/13 02:51:32;;;;;;;3.25;2.80;;;;;;;;;;6004711;29;20081;-82
2022/07/13 02:54:34;;;;;;;3.08;2.78;;;;;;;;;;6025866;29;20057;-79
2022/07/13 02:57:36;;;;;;;3.38;2.40;;;;;;;;;;6023998;29;20101;-80
2022/07/13 03:00:40;;;;;;;3.22;2.92;;;;;;;;;;6004826;29;20064;-81
2022/07/13 03:03:42;;;;;;;3.03;2.72;;;;;;;;;;6007952;29;20137;-82
2022/07/13 03:06:45;;;;;;;3.00;2.70;;;;;;;;;;5984397;29;20065;-81
2022/07/13 03:09:46;;;;;;;3.25;2.70;;;;;;;;;;6016535;29;20054;-81
2022/07/13 03:12:51;;;;;;;2.67;2.47;;;;;;;;;;6003185;29;20074;-81
2022/07/13 03:15:53;;;;;;;3.10;2.77;;;;;;;;;;6009517;29;20045;-81
2022/07/13 03:18:56;;;;;;;2.95;2.65;;;;;;;;;;6028433;29;20767;-83
2022/07/13 03:22:03;;;;;;;3.30;2.78;;;;;;;;;;6010999;29;20052;-81
2022/07/13 03:25:06;;;;;;;2.67;2.45;;;;;;;;;;6007636;29;20125;-81
2022/07/13 03:28:09;;;;;;;2.70;2.50;;;;;;;;;;5986271;29;20046;-82
2022/07/13 03:31:11;;;;;;;2.70;2.50;;;;;;;;;;6016480;29;20059;-81
2022/07/13 03:34:13;;;;;;;3.08;2.78;;;;;;;;;;6012565;29;20821;-83
2022/07/13 03:37:15;;;;;;;3.47;3.00;;;;;;;;;;6010611;29;20132;-79
2022/07/13 03:40:17;;;;;;;3.10;2.70;;;;;;;;;;6004600;29;20049;-80
2022/07/13 03:43:22;;;;;;;3.33;2.97;;;;;;;;;;6007452;29;20585;-79
2022/07/13 03:46:24;;;;;;;2.83;2.63;;;;;;;;;;5996349;29;20078;-81
2022/07/13 03:49:26;;;;;;;3.13;2.58;;;;;;;;;;6009294;29;20050;-83
2022/07/13 03:52:28;;;;;;;3.50;3.03;;;;;;;;;;6012488;29;20053;-80
2022/07/13 03:55:30;;;;;;;2.88;2.58;;;;;;;;;;6001916;29;20454;-80
2022/07/13 03:58:31;;;;;;;3.65;3.08;;;;;;;;;;6025471;29;20070;-79
2022/07/13 04:01:33;;;;;;;4.20;2.72;;;;;;;;;;6017766;29;20506;-79
2022/07/13 04:04:36;;;;;;;3.92;2.97;;;;;;;;;;6012674;29;20417;-79
2022/07/13 04:07:37;;;;;;;2.95;2.70;;;;;;;;;;6024683;29;20050;-80
2022/07/13 04:10:39;;;;;;;2.80;2.40;;;;;;;;;;6012111;29;20042;-81
2022/07/13 04:13:41;;;;;;;3.13;2.55;;;;;;;;;;6005714;29;20053;-82
2022/07/13 04:16:43;;;;;;;2.63;2.43;;;;;;;;;;6009929;29;20536;-81
2022/07/13 04:19:45;;;;;;;4.03;2.50;;;;;;;;;;6011907;29;20443;-81
2022/07/13 04:22:48;;;;;;;2.85;2.30;;;;;;;;;;6010846;29;20045;-80
2022/07/13 04:25:51;;;;;;;4.25;2.95;;;;;;;;;;6002106;29;20056;-82
2022/07/13 04:28:52;;;;;;;2.88;2.60;;;;;;;;;;6020800;29;20045;-80
2022/07/13 04:31:56;;;;;;;3.70;2.53;;;;;;;;;;6011295;29;20049;-81
2022/07/13 04:34:58;;;;;;;2.92;2.55;;;;;;;;;;6002459;29;20557;-80
2022/07/13 04:38:03;;;;;;;4.40;2.80;;;;;;;;;;6004983;29;20076;-82
2022/07/13 04:41:05;;;;;;;3.92;2.50;;;;;;;;;;6012637;29;20048;-82
2022/07/13 04:44:08;;;;;;;5.10;2.58;;;;;;;;;;6008820;29;20162;-81
2022/07/13 04:47:11;;;;;;;3.13;2.80;;;;;;;;;;6012176;29;20057;-82
2022/07/13 04:50:13;;;;;;;3.20;2.90;;;;;;;;;;6012273;29;20065;-83
2022/07/13 04:53:15;;;;;;;3.58;2.75;;;;;;;;;;6013707;29;20049;-82
2022/07/13 04:56:17;;;;;;;3.20;2.83;;;;;;;;;;6009264;29;20049;-82
2022/07/13 04:59:18;;;;;;;4.60;3.40;;;;;;;;;;6006318;29;20045;-83
2022/07/13 05:02:20;;;;;;;3.85;2.92;;;;;;;;;;6015517;29;20505;-82
2022/07/13 05:05:22;;;;;;;3.35;2.92;;;;;;;;;;6030443;29;20051;-83
2022/07/13 05:08:24;;;;;;;3.43;3.10;;;;;;;;;;6011652;29;20051;-83
2022/07/13 05:11:26;;;;;;;3.40;3.10;;;;;;;;;;6013785;29;20049;-83
2022/07/13 05:14:28;;;;;;;4.97;3.43;;;;;;;;;;6013546;29;20097;-83
2022/07/13 05:17:30;;;;;;;5.20;3.58;;;;;;;;;;6024555;29;20540;-83
2022/07/13 05:20:34;;;;;;;3.50;2.63;;;;;;;;;;6014615;29;20125;-83
2022/07/13 05:23:37;;;;;;;3.38;2.83;;;;;;;;;;6013549;29;20049;-82
2022/07/13 05:26:40;;;;;;;3.55;3.25;;;;;;;;;;5998516;29;20052;-83
2022/07/13 05:29:42;;;;;;;3.37;3.07;;;;;;;;;;5991383;29;20054;-81
2022/07/13 05:32:45;;;;;;;5.50;3.30;;;;;;;;;;5998314;29;20597;-82
2022/07/13 05:35:47;;;;;;;4.28;3.53;;;;;;;;;;6012973;29;20073;-83
2022/07/13 05:38:49;;;;;;;5.40;3.20;;;;;;;;;;6012711;29;20529;-82
2022/07/13 05:41:51;;;;;;;3.45;3.13;;;;;;;;;;6010512;29;20049;-83
2022/07/13 05:44:53;;;;;;;3.25;2.80;;;;;;;;;;6012375;29;20050;-85
2022/07/13 05:47:54;;;;;;;3.97;3.55;;;;;;;;;;6012266;29;20064;-82
2022/07/13 05:50:56;;;;;;;4.00;3.45;;;;;;;;;;6007881;29;20076;-82
2022/07/13 05:54:18;;;;;;;4.35;3.95;;;;;;;;;;6015148;29;20045;-82
2022/07/13 05:57:40;;;;;;;4.82;3.50;;;;;;;;;;6015566;29;20045;-84
2022/07/13 06:00:41;;;;;;;4.45;3.78;;;;;;;;;;6027971;29;20069;-82
2022/07/13 06:03:43;;;;;;;3.80;3.28;;;;;;;;;;6009625;29;20049;-82
2022/07/13 06:06:45;;;;;;;6.07;3.45;;;;;;;;;;6003789;29;20052;-81
2022/07/13 06:09:46;;;;;;;3.97;3.50;;;;;;;;;;6022054;29;20096;-84
2022/07/13 06:12:48;;;;;;;4.35;3.67;;;;;;;;;;6025359;29;20065;-82
2022/07/13 06:15:50;;;;;;;3.42;3.05;;;;;;;;;;6024275;29;20129;-83
2022/07/13 06:18:52;;;;;;;3.97;3.47;;;;;;;;;;6010223;29;20098;-80
2022/07/13 06:21:53;;;;;;;5.45;3.22;;;;;;;;;;6021829;29;20537;-82
2022/07/13 06:24:55;;;;;;;3.50;3.20;;;;;;;;;;6028551;29;20639;-83
2022/07/13 06:27:56;;;;;;;5.07;3.22;;;;;;;;;;6000568;29;20561;-83
2022/07/13 06:30:58;;;;;;;3.47;3.15;;;;;;;;;;6021459;29;20129;-82
2022/07/13 06:34:00;;;;;;;5.00;3.35;;;;;;;;;;6027628;29;20053;-84
2022/07/13 06:37:01;;;;;;;3.55;2.85;;;;;;;;;;6009173;29;20090;-82
2022/07/13 06:40:23;;;;;;;3.30;2.55;;;;;;;;;;6026435;29;21021;-80
2022/07/13 06:43:25;;;;;;;5.03;2.80;;;;;;;;;;6003208;29;20049;-82
2022/07/13 06:46:27;;;;;;;6.47;3.10;;;;;;;;;;6026696;29;20110;-81
2022/07/13 06:49:29;;;;;;;3.55;3.05;;;;;;;;;;6007006;29;20045;-83
2022/07/13 06:52:31;;;;;;;4.38;3.00;;;;;;;;;;6012833;29;20061;-82
2022/07/13 06:55:34;;;;;;;2.90;2.60;;;;;;;;;;6032301;29;20053;-82
2022/07/13 06:58:35;;;;;;;3.42;3.00;;;;;;;;;;6010484;29;20050;-84
2022/07/13 07:01:37;;;;;;;4.63;3.20;;;;;;;;;;6032091;29;20069;-82
2022/07/13 07:04:39;;;;;;;4.75;3.33;;;;;;;;;;6014965;29;20053;-83
2022/07/13 07:07:45;;;;;;;3.20;2.90;;;;;;;;;;6031139;29;20042;-83
2022/07/13 07:10:47;;;;;;;4.03;3.00;;;;;;;;;;6032107;29;20458;-81
2022/07/13 07:13:49;;;;;;;3.63;3.20;;;;;;;;;;6009579;29;20074;-83
2022/07/13 07:16:51;;;;;;;4.25;3.22;;;;;;;;;;6031666;29;20092;-83
2022/07/13 07:20:03;;;;;;;3.35;3.00;;;;;;;;;;6021907;29;20051;-83
2022/07/13 07:23:05;;;;;;;3.30;2.72;;;;;;;;;;6016014;29;20050;-82
2022/07/13 07:26:06;;;;;;;4.57;2.70;;;;;;;;;;6031895;29;20516;-83
2022/07/13 07:29:08;;;;;;;3.42;2.70;;;;;;;;;;6014814;29;20517;-83
2022/07/13 07:32:10;;;;;;;2.78;2.58;;;;;;;;;;6032329;29;20097;-83
2022/07/13 07:35:11;;;;;;;3.85;2.42;;;;;;;;;;6016097;29;20125;-83
2022/07/13 07:38:13;;;;;;;2.63;2.40;;;;;;;;;;5998129;29;20065;-83
2022/07/13 07:41:15;;;;;;;3.65;2.70;;;;;;;;;;6030374;29;20121;-81
2022/07/13 07:44:18;;;;;;;3.10;2.50;;;;;;;;;;6013672;29;20124;-80
2022/07/13 07:47:27;;;;;;;2.95;2.53;;;;;;;;;;6012459;29;20056;-83
2022/07/13 07:50:28;;;;;;;3.53;2.30;;;;;;;;;;6007618;29;20191;-83
2022/07/13 07:53:30;;;;;;;4.15;2.58;;;;;;;;;;6017848;29;20518;-83
2022/07/13 07:56:32;;;;;;;6.45;2.50;;;;;;;;;;6029849;29;20526;-82
2022/07/13 07:59:33;;;;;;;2.92;2.45;;;;;;;;;;6026632;29;20082;-83
2022/07/13 08:02:35;;;;;;;3.10;2.40;;;;;;;;;;6026460;29;20053;-81
2022/07/13 08:05:37;;;;;;;5.90;2.90;;;;;;;;;;6029250;29;20056;-83
2022/07/13 08:08:39;;;;;;;4.47;2.40;;;;;;;;;;6024620;29;20102;-83
2022/07/13 08:11:43;;;;;;;3.63;2.33;;;;;;;;;;6031249;29;20442;-84
2022/07/13 08:14:45;;;;;;;3.53;2.57;;;;;;;;;;6013911;29;20466;-81
2022/07/13 08:17:48;;;;;;;4.90;2.50;;;;;;;;;;6031009;29;20049;-82
2022/07/13 08:20:50;;;;;;;5.38;2.65;;;;;;;;;;6030020;29;20517;-83
2022/07/13 08:23:51;;;;;;;2.70;2.25;;;;;;;;;;6029762;29;20106;-83
2022/07/13 08:26:54;;;;;;;2.58;2.38;;;;;;;;;;6013193;29;20561;-84
2022/07/13 08:29:55;;;;;;;3.20;2.22;;;;;;;;;;6026370;29;20054;-83
2022/07/13 08:32:57;;;;;;;4.20;2.50;;;;;;;;;;6013023;29;20054;-83
2022/07/13 08:39:20;;;;;;;2.20;2.10;;;;;;;;;;6028440;29;20057;-83
2022/07/13 08:42:22;;;;;;;2.70;1.90;;;;;;;;;;6028757;29;20480;-82
2022/07/13 08:45:24;;;;;;;3.42;2.10;;;;;;;;;;6025501;29;20461;-82
2022/07/13 08:48:31;;;;;;;3.22;1.90;;;;;;;;;;6027936;29;20041;-82
2022/07/13 08:51:33;;;;;;;2.22;1.98;;;;;;;;;;5998858;29;20105;-85
2022/07/13 08:54:34;;;;;;;2.38;2.10;;;;;;;;;;6025441;29;20065;-84
2022/07/13 08:57:38;;;;;;;3.93;2.30;;;;;;;;;;6023439;29;20069;-83
2022/07/13 09:00:41;;;;;;;2.25;2.10;;;;;;;;;;6028659;29;20101;-82
2022/07/13 09:03:43;;;;;;;2.38;1.90;;;;;;;;;;6027984;29;20087;-82
2022/07/13 09:06:48;;;;;;;2.40;2.20;;;;;;;;;;6028131;29;20065;-83
2022/07/13 09:09:54;;;;;;;2.15;1.98;;;;;;;;;;6025592;29;20057;-81
2022/07/13 09:13:42;;;;;;;2.63;1.90;;;;;;;;;;6021270;29;20054;-81
2022/07/13 09:16:47;;;;;;;3.17;2.20;;;;;;;;;;6022562;29;20149;-81
2022/07/13 09:19:49;;;;;;;2.40;1.90;;;;;;;;;;6027914;29;20057;-83
2022/07/13 09:22:54;;;;;;;3.73;1.90;;;;;;;;;;6026215;29;20128;-84
2022/07/13 09:25:57;;;;;;;2.75;1.70;;;;;;;;;;6008239;29;20049;-82
2022/07/13 09:29:00;;;;;;;3.83;1.55;;;;;;;;;;6006711;29;20056;-80
2022/07/13 09:32:07;;;;;;;1.65;1.50;;;;;;;;;;6027220;29;20101;-83
2022/07/13 09:35:08;;;;;;;3.35;1.60;;;;;;;;;;6027072;29;20163;-83
2022/07/13 09:38:33;;;;;;;4.33;1.80;;;;;;;;;;6007055;29;20130;-83
2022/07/13 09:41:34;;;;;;;3.13;1.60;;;;;;;;;;6003025;29;20078;-83
2022/07/13 09:48:14;;;;;;;5.95;1.80;;;;;;;;;;5941107;29;20139;-81
2022/07/13 09:51:25;;;;;;;3.50;1.70;;;;;;;;;;6024395;29;20077;-83
2022/07/13 09:54:28;;;;;;;4.60;1.60;;;;;;;;;;6025557;29;20089;-83
2022/07/13 09:57:34;;;;;;;3.38;1.60;;;;;;;;;;6007890;29;20585;-83
2022/07/13 10:00:37;;;;;;;1.58;1.30;;;;;;;;;;6022003;29;20145;-82
2022/07/13 10:03:40;;;;;;;2.38;1.80;;;;;;;;;;6028657;29;20116;-82
2022/07/13 10:06:48;;;;;;;2.00;1.65;;;;;;;;;;6006870;29;20049;-83
2022/07/13 10:09:49;;;;;;;;;;;;;;;;;;6007889;29;20109;-82
2022/07/13 10:12:54;;;;;;;1.83;1.38;;;;;;;;;;6024694;29;20007;-82
2022/07/13 10:15:56;;;;;;;2.30;1.58;;;;;;;;;;6020489;29;20536;-83
2022/07/13 10:19:04;;;;;;;2.17;1.40;;;;;;;;;;6022324;29;20064;-81
2022/07/13 10:22:11;;;;;;;1.45;1.35;;;;;;;;;;6009789;29;20170;-82
2022/07/13 10:25:13;;;;;;;3.53;1.45;;;;;;;;;;6020186;29;20545;-82
2022/07/13 10:28:18;;;;;;;2.38;1.60;;;;;;;;;;6025196;29;20819;-82
2022/07/13 10:31:28;;;;;;;3.25;1.50;;;;;;;;;;6027230;29;20045;-81
2022/07/13 10:34:58;;;;;;;3.30;1.40;;;;;;;;;;6005129;29;20129;-82
2022/07/13 10:37:59;;;;;;;2.08;1.55;;;;;;;;;;6006323;29;20049;-81
2022/07/13 10:41:20;;;;;;;1.98;1.52;;;;;;;;;;6026391;29;20045;-81
2022/07/13 10:44:48;;;;;;;2.13;1.40;;;;;;;;;;6018910;29;20478;-81
2022/07/13 10:47:50;;;;;;;3.10;1.60;;;;;;;;;;6018450;29;20057;-82
2022/07/13 10:50:53;;;;;;;;;;;;;;;;;;6025906;29;20144;-82
2022/07/13 10:53:54;;;;;;;2.40;1.70;;;;;;;;;;6026324;29;19977;-81
2022/07/13 10:57:14;;;;;;;1.50;1.40;;;;;;;;;;6022097;29;20161;-81
2022/07/13 11:00:22;;;;;;;2.75;1.42;;;;;;;;;;6018926;29;20474;-82
2022/07/13 11:03:37;;;;;;;2.60;1.30;;;;;;;;;;6024851;29;20506;-82
2022/07/13 11:06:39;;;;;;;2.13;1.40;;;;;;;;;;6020879;29;20061;-83
2022/07/13 11:10:23;;;;;;;2.78;1.40;;;;;;;;;;6020106;29;20144;-82
2022/07/13 11:13:25;;;;;;;3.67;1.40;;;;;;;;;;6023811;29;20121;-80
2022/07/13 11:16:48;;;;;;;3.03;1.40;;;;;;;;;;6009286;29;20443;-80
2022/07/13 11:19:56;;;;;;;2.33;1.52;;;;;;;;;;6026581;29;20135;-79
2022/07/13 11:26:30;;;;;;;5.18;1.45;;;;;;;;;;6025304;29;20049;-81
2022/07/13 11:29:55;;;;;;;4.13;1.40;;;;;;;;;;6025219;29;20478;-80
2022/07/13 11:33:09;;;;;;;2.08;1.52;;;;;;;;;;6025886;29;20399;-79
2022/07/13 11:36:11;;;;;;;1.92;1.40;;;;;;;;;;6029671;29;20075;-81
2022/07/13 11:39:33;;;;;;;1.35;1.25;;;;;;;;;;6013916;29;20444;-80
2022/07/13 11:42:35;;;;;;;4.88;1.40;;;;;;;;;;6003965;29;20104;-80
2022/07/13 11:45:39;;;;;;;2.10;1.10;;;;;;;;;;6025513;29;20079;-80
2022/07/13 11:48:41;;;;;;;2.03;1.50;;;;;;;;;;6027789;29;20178;-80
2022/07/13 11:51:44;;;;;;;1.33;1.23;;;;;;;;;;6010250;29;20565;-82
2022/07/13 11:54:59;;;;;;;3.90;1.50;;;;;;;;;;6006439;29;20045;-81
2022/07/13 11:58:01;;;;;;;1.58;1.48;;;;;;;;;;6020169;29;20053;-81
2022/07/13 12:01:11;;;;;;;3.30;1.30;;;;;;;;;;6006569;29;20777;-82
2022/07/13 12:04:21;;;;;;;2.95;1.60;;;;;;;;;;6027024;29;20071;-81
2022/07/13 12:07:30;;;;;;;2.42;1.30;;;;;;;;;;6026247;29;20184;-82
2022/07/13 12:10:35;;;;;;;2.30;1.35;;;;;;;;;;5988918;29;20045;-81
2022/07/13 12:13:39;;;;;;;2.08;1.30;;;;;;;;;;6018091;29;20050;-82
2022/07/13 12:16:40;;;;;;;3.08;1.27;;;;;;;;;;6005755;29;20073;-82
2022/07/13 12:19:42;;;;;;;1.80;1.33;;;;;;;;;;6027643;29;20069;-82
2022/07/13 12:22:50;;;;;;;4.25;1.45;;;;;;;;;;6026793;29;20076;-82
2022/07/13 12:26:04;;;;;;;1.95;1.55;;;;;;;;;;6023677;29;20470;-83
2022/07/13 12:29:06;;;;;;;2.00;1.48;;;;;;;;;;6027305;29;20179;-82
2022/07/13 12:32:07;;;;;;;2.13;1.50;;;;;;;;;;6011589;29;20127;-83
2022/07/13 12:35:14;;;;;;;2.70;1.60;;;;;;;;;;6026908;29;20067;-83
2022/07/13 12:38:15;;;;;;;4.00;1.58;;;;;;;;;;6023239;29;20058;-84
2022/07/13 12:41:26;;;;;;;2.47;1.50;;;;;;;;;;6009935;29;20129;-85
2022/07/13 12:44:31;;;;;;;2.55;1.50;;;;;;;;;;6027854;29;20045;-84
2022/07/13 12:47:36;;;;;;;1.95;1.27;;;;;;;;;;6026116;29;20133;-82
2022/07/13 12:50:38;;;;;;;3.78;1.60;;;;;;;;;;6011636;29;20045;-85
2022/07/13 12:53:50;;;;;;;4.07;1.75;;;;;;;;;;6026126;29;20042;-86
2022/07/13 12:56:52;;;;;;;8.60;1.88;;;;;;;;;;6027805;29;20200;-85
2022/07/13 13:00:11;;;;;;;4.40;1.90;;;;;;;;;;6021890;29;20049;-85
2022/07/13 13:03:21;;;;;;;1.52;1.42;;;;;;;;;;6012714;29;20084;-86
2022/07/13 13:06:22;;;;;;;;;;;;;;;;;;6010647;29;20113;-86
2022/07/13 13:09:24;;;;;;;1.60;1.42;;;;;;;;;;6011393;29;20475;-85
2022/07/13 13:12:25;;;;;;;3.80;1.63;;;;;;;;;;6024032;29;20124;-86
2022/07/13 13:15:27;;;;;;;3.63;1.67;;;;;;;;;;6019851;29;20053;-87
2022/07/13 13:18:29;;;;;;;;;;;;;;;;;;6019596;29;20363;-84
2022/07/13 13:21:31;;;;;;;1.50;1.40;;;;;;;;;;6018495;29;19924;-84
2022/07/13 13:24:33;;;;;;;2.50;1.58;;;;;;;;;;6013844;29;20068;-82
2022/07/13 13:27:34;;;;;;;2.33;1.35;;;;;;;;;;6022746;29;20049;-86
2022/07/13 13:30:56;;;;;;;3.42;1.52;;;;;;;;;;6014354;29;20057;-84
2022/07/13 13:33:57;;;;;;;3.40;1.80;;;;;;;;;;6005064;29;20128;-84
2022/07/13 13:37:19;;;;;;;3.08;1.60;;;;;;;;;;6019349;29;20524;-85
2022/07/13 13:40:21;;;;;;;1.60;1.50;;;;;;;;;;6015150;29;20045;-85
2022/07/13 13:43:23;;;;;;;1.70;1.40;;;;;;;;;;6001390;29;20037;-83
2022/07/13 13:46:24;;;;;;;2.55;1.83;;;;;;;;;;6024524;29;20101;-84
2022/07/13 13:49:26;;;;;;;2.72;1.60;;;;;;;;;;6010550;29;20705;-82
2022/07/13 13:52:28;;;;;;;2.65;1.50;;;;;;;;;;6024166;29;20086;-84
2022/07/13 13:55:29;;;;;;;3.33;1.65;;;;;;;;;;6026891;29;20049;-85
2022/07/13 13:58:31;;;;;;;2.92;1.50;;;;;;;;;;5993167;29;20097;-84
2022/07/13 14:01:32;;;;;;;;;;;;;;;;;;6005674;29;20505;-85
2022/07/13 14:04:34;;;;;;;3.47;1.73;;;;;;;;;;6025575;29;20024;-83
2022/07/13 14:07:37;;;;;;;3.05;1.63;;;;;;;;;;6019937;29;20049;-84
2022/07/13 14:10:42;;;;;;;1.60;1.50;;;;;;;;;;6025057;29;20050;-83
2022/07/13 14:13:46;;;;;;;2.97;1.65;;;;;;;;;;6023046;29;20433;-84
2022/07/13 14:16:48;;;;;;;3.35;1.80;;;;;;;;;;6009464;29;20080;-82
2022/07/13 14:19:50;;;;;;;2.05;1.77;;;;;;;;;;6011491;29;20065;-82
2022/07/13 14:23:12;;;;;;;1.88;1.60;;;;;;;;;;6025760;29;20063;-83
2022/07/13 14:26:13;;;;;;;;;;;;;;;;;;6024113;29;20482;-84
2022/07/13 14:29:15;;;;;;;2.22;1.70;;;;;;;;;;6000058;29;19931;-85
2022/07/13 14:32:17;;;;;;;3.22;1.73;;;;;;;;;;6009029;29;20065;-85
2022/07/13 14:35:31;;;;;;;3.53;2.05;;;;;;;;;;6008509;29;20042;-84
2022/07/13 14:38:33;;;;;;;3.58;1.80;;;;;;;;;;6018242;29;20137;-84
2022/07/13 14:41:35;;;;;;;2.05;1.60;;;;;;;;;;6019669;29;20050;-84
2022/07/13 14:44:37;;;;;;;2.63;1.95;;;;;;;;;;5998054;29;20128;-84
2022/07/13 14:47:39;;;;;;;2.25;1.98;;;;;;;;;;6019728;29;20060;-83
2022/07/13 14:51:00;;;;;;;;;;;;;;;;;;6017929;29;20486;-80
2022/07/13 14:54:11;;;;;;;2.10;1.90;;;;;;;;;;6010331;29;19928;-84
2022/07/13 14:57:13;;;;;;;2.17;1.90;;;;;;;;;;6020943;29;20573;-83
2022/07/13 15:00:15;;;;;;;2.40;1.65;;;;;;;;;;6009011;29;20611;-83
2022/07/13 15:03:17;;;;;;;3.78;1.83;;;;;;;;;;6011274;29;20050;-83
2022/07/13 15:06:19;;;;;;;3.47;1.95;;;;;;;;;;6017942;29;20126;-86
2022/07/13 15:09:21;;;;;;;2.53;1.55;;;;;;;;;;6015348;29;20838;-83
2022/07/13 15:12:43;;;;;;;;;;;;;;;;;;6010884;29;20066;-84
2022/07/13 15:15:45;;;;;;;3.75;2.00;;;;;;;;;;6026971;29;19989;-83
2022/07/13 15:18:46;;;;;;;;;;;;;;;;;;6026633;29;20118;-85
2022/07/13 15:21:48;;;;;;;3.95;1.88;;;;;;;;;;6023684;29;19930;-85
2022/07/13 15:24:50;;;;;;;;;;;;;;;;;;6024901;29;20057;-82
2022/07/13 15:27:52;;;;;;;2.50;1.75;;;;;;;;;;6027545;29;19928;-83
2022/07/13 15:30:54;;;;;;;2.25;1.90;;;;;;;;;;6025988;29;20078;-83
2022/07/13 15:33:58;;;;;;;2.88;1.98;;;;;;;;;;6026055;29;20061;-84
2022/07/13 15:37:00;;;;;;;7.65;2.20;;;;;;;;;;5998755;29;20520;-84
2022/07/13 15:40:01;;;;;;;;;;;;;;;;;;6001063;29;20050;-83
2022/07/13 15:43:03;;;;;;;4.28;1.95;;;;;;;;;;6003935;29;20361;-84
2022/07/13 15:46:05;;;;;;;3.67;1.90;;;;;;;;;;6022212;29;20178;-83
2022/07/13 15:49:06;;;;;;;3.55;1.77;;;;;;;;;;6024315;29;20077;-84
2022/07/13 15:52:08;;;;;;;2.95;1.85;;;;;;;;;;5988056;29;20320;-82
2022/07/13 15:55:10;;;;;;;2.83;2.03;;;;;;;;;;6016656;29;20056;-82
2022/07/13 15:58:11;;;;;;;4.97;2.15;;;;;;;;;;6030669;29;20090;-81
2022/07/13 16:01:13;;;;;;;4.53;1.90;;;;;;;;;;6032422;29;20053;-79
2022/07/13 16:04:14;;;;;;;2.90;1.83;;;;;;;;;;6030685;29;20133;-80
2022/07/13 16:07:16;;;;;;;2.75;1.90;;;;;;;;;;6027594;29;20072;-80
2022/07/13 16:10:18;;;;;;;5.00;2.45;;;;;;;;;;6032729;29;20128;-80
2022/07/13 16:13:24;;;;;;;2.80;1.75;;;;;;;;;;6025349;29;20042;-80
2022/07/13 16:16:26;;;;;;;3.28;1.70;;;;;;;;;;6023875;29;20081;-77
2022/07/13 16:19:28;;;;;;;2.40;1.90;;;;;;;;;;6025786;29;20502;-82
2022/07/13 16:22:49;;;;;;;4.63;1.90;;;;;;;;;;6025699;29;25074;-80
2022/07/13 16:25:51;;;;;;;2.67;1.88;;;;;;;;;;6026746;29;20137;-82
2022/07/13 16:28:53;;;;;;;3.70;2.10;;;;;;;;;;6015194;29;20073;-80
2022/07/13 16:31:55;;;;;;;2.65;1.80;;;;;;;;;;6014179;29;20202;-79
2022/07/13 16:34:56;;;;;;;2.78;1.88;;;;;;;;;;6011824;29;20054;-81
2022/07/13 16:37:58;;;;;;;3.47;1.90;;;;;;;;;;6016321;29;20074;-82
2022/07/13 16:41:08;;;;;;;3.75;2.00;;;;;;;;;;6029023;29;20061;-82
2022/07/13 16:44:09;;;;;;;2.50;1.77;;;;;;;;;;6027186;29;20513;-80
2022/07/13 16:47:11;;;;;;;2.28;1.63;;;;;;;;;;6030096;29;20458;-82
2022/07/13 16:50:13;;;;;;;;;;;;;;;;;;5999339;29;20050;-82
2022/07/13 16:53:14;;;;;;;2.60;1.73;;;;;;;;;;6018914;29;19927;-82
2022/07/13 16:56:16;;;;;;;4.38;1.50;;;;;;;;;;6030200;29;20648;-80
2022/07/13 16:59:18;;;;;;;3.58;1.88;;;;;;;;;;6014079;29;20069;-78
2022/07/13 17:02:19;;;;;;;3.50;1.80;;;;;;;;;;6014072;29;20061;-81
2022/07/13 17:05:22;;;;;;;1.67;1.42;;;;;;;;;;6031896;29;20075;-80
2022/07/13 17:08:24;;;;;;;1.95;1.80;;;;;;;;;;6015168;29;20082;-82
2022/07/13 17:11:26;;;;;;;3.97;2.00;;;;;;;;;;6013879;29;20045;-80
2022/07/13 17:14:28;;;;;;;3.08;1.60;;;;;;;;;;6023716;29;20085;-79
2022/07/13 17:17:30;;;;;;;3.88;1.83;;;;;;;;;;6031346;29;20046;-81
2022/07/13 17:20:31;;;;;;;5.93;1.83;;;;;;;;;;6007223;29;20134;-81
2022/07/13 17:23:33;;;;;;;7.88;2.05;;;;;;;;;;6032488;29;20565;-81
2022/07/13 17:26:35;;;;;;;4.20;1.90;;;;;;;;;;6014206;29;20074;-81
2022/07/13 17:29:36;;;;;;;5.07;2.00;;;;;;;;;;6014312;29;20064;-79
2022/07/13 17:32:38;;;;;;;2.30;1.63;;;;;;;;;;6027928;29;20100;-79
2022/07/13 17:35:40;;;;;;;4.90;2.00;;;;;;;;;;6014536;29;20106;-82
2022/07/13 17:38:42;;;;;;;2.97;1.88;;;;;;;;;;6028960;29;20109;-81
2022/07/13 17:41:43;;;;;;;5.68;1.70;;;;;;;;;;6022752;29;20048;-81
2022/07/13 17:44:45;;;;;;;3.88;1.95;;;;;;;;;;6029861;29;20086;-78
2022/07/13 17:47:46;;;;;;;2.35;2.15;;;;;;;;;;6010300;29;20075;-80
2022/07/13 17:50:48;;;;;;;2.35;1.90;;;;;;;;;;6011213;29;20117;-80
2022/07/13 17:53:50;;;;;;;2.28;1.75;;;;;;;;;;6023498;29;20112;-80
2022/07/13 17:56:51;;;;;;;3.78;2.25;;;;;;;;;;6011595;29;20687;-80
2022/07/13 17:59:54;;;;;;;4.10;2.30;;;;;;;;;;6022843;29;20133;-77
2022/07/13 18:02:55;;;;;;;3.03;2.13;;;;;;;;;;6012552;29;20132;-81
2022/07/13 18:05:57;;;;;;;3.47;2.30;;;;;;;;;;6025939;29;20053;-80
2022/07/13 18:08:59;;;;;;;3.15;2.28;;;;;;;;;;6023832;29;20049;-78
2022/07/13 18:12:00;;;;;;;4.53;2.42;;;;;;;;;;6013061;29;20117;-78
2022/07/13 18:15:03;;;;;;;3.05;2.40;;;;;;;;;;6012521;29;20053;-81
2022/07/13 18:18:05;;;;;;;3.00;2.38;;;;;;;;;;6004206;29;20132;-81
2022/07/13 18:21:12;;;;;;;2.63;2.40;;;;;;;;;;6013395;29;20053;-80
2022/07/13 18:24:14;;;;;;;5.82;2.55;;;;;;;;;;6019432;29;20155;-79
2022/07/13 18:27:15;;;;;;;3.05;2.72;;;;;;;;;;6027938;29;20178;-81
2022/07/13 18:30:34;;;;;;;4.53;3.00;;;;;;;;;;6018487;29;20063;-78
2022/07/13 18:33:37;;;;;;;3.95;2.70;;;;;;;;;;6025798;29;20053;-81
2022/07/13 18:36:39;;;;;;;3.08;2.65;;;;;;;;;;6010306;29;20129;-82
2022/07/13 18:39:41;;;;;;;3.35;2.88;;;;;;;;;;6025754;29;20512;-79